sensor_id;sensor_type;location;lat;lon;timestamp;pressure;altitude;pressure_sealevel;temperature;humidity
23176;BME280;19910;42.652;23.332;2022-08-02T00:01:39;94469.94;;;18.37;58.38
23176;BME280;19910;42.652;23.332;2022-08-02T00:04:06;94469.16;;;18.40;58.37
23176;BME280;19910;42.652;23.332;2022-08-02T00:06:34;94464.81;;;18.36;58.42
23176;BME280;19910;42.652;23.332;2022-08-02T00:09:02;94460.09;;;18.29;58.87
23176;BME280;19910;42.652;23.332;2022-08-02T00:11:29;94463.63;;;18.33;58.02
23176;BME280;19910;42.652;23.332;2022-08-02T00:13:56;94458.91;;;18.30;58.48
23176;BME280;19910;42.652;23.332;2022-08-02T00:16:23;94453.44;;;18.30;57.89
23176;BME280;19910;42.652;23.332;2022-08-02T00:18:50;94462.81;;;18.29;57.88
23176;BME280;19910;42.652;23.332;2022-08-02T00:21:17;94461.25;;;18.32;57.72
23176;BME280;19910;42.652;23.332;2022-08-02T00:23:44;94463.22;;;18.31;57.77
23176;BME280;19910;42.652;23.332;2022-08-02T00:26:12;94458.50;;;18.32;57.56
23176;BME280;19910;42.652;23.332;2022-08-02T00:28:39;94464.78;;;18.32;57.57
23176;BME280;19910;42.652;23.332;2022-08-02T00:31:06;94460.53;;;18.38;57.56
23176;BME280;19910;42.652;23.332;2022-08-02T00:33:33;94452.69;;;18.37;57.88
23176;BME280;19910;42.652;23.332;2022-08-02T00:36:00;94455.03;;;18.38;57.38
23176;BME280;19910;42.652;23.332;2022-08-02T00:38:28;94445.72;;;18.50;57.27
23176;BME280;19910;42.652;23.332;2022-08-02T00:40:54;94453.56;;;18.52;57.22
23176;BME280;19910;42.652;23.332;2022-08-02T00:43:23;94448.06;;;18.44;57.13
23176;BME280;19910;42.652;23.332;2022-08-02T00:45:50;94447.97;;;18.37;57.25
23176;BME280;19910;42.652;23.332;2022-08-02T00:48:16;94456.25;;;18.41;57.47
23176;BME280;19910;42.652;23.332;2022-08-02T00:50:43;94454.63;;;18.36;57.44
23176;BME280;19910;42.652;23.332;2022-08-02T00:53:10;94453.38;;;18.23;57.97
23176;BME280;19910;42.652;23.332;2022-08-02T00:55:37;94448.22;;;18.18;58.46
23176;BME280;19910;42.652;23.332;2022-08-02T00:58:05;94448.53;;;18.06;61.25
23176;BME280;19910;42.652;23.332;2022-08-02T01:00:34;94453.13;;;17.95;63.03
23176;BME280;19910;42.652;23.332;2022-08-02T01:03:00;94454.59;;;17.82;63.97
23176;BME280;19910;42.652;23.332;2022-08-02T01:05:27;94463.16;;;17.77;64.13
23176;BME280;19910;42.652;23.332;2022-08-02T01:07:54;94463.66;;;17.52;66.35
23176;BME280;19910;42.652;23.332;2022-08-02T01:10:22;94458.84;;;17.42;66.91
23176;BME280;19910;42.652;23.332;2022-08-02T01:12:49;94458.69;;;17.28;67.87
23176;BME280;19910;42.652;23.332;2022-08-02T01:15:16;94462.44;;;17.13;68.69
23176;BME280;19910;42.652;23.332;2022-08-02T01:17:48;94458.41;;;17.03;69.14
23176;BME280;19910;42.652;23.332;2022-08-02T01:20:30;94455.19;;;16.97;69.65
23176;BME280;19910;42.652;23.332;2022-08-02T01:23:11;94457.50;;;16.95;70.42
23176;BME280;19910;42.652;23.332;2022-08-02T01:25:52;94452.63;;;16.78;71.44
23176;BME280;19910;42.652;23.332;2022-08-02T01:28:34;94460.28;;;16.69;71.67
23176;BME280;19910;42.652;23.332;2022-08-02T01:31:05;94462.00;;;16.54;72.29
23176;BME280;19910;42.652;23.332;2022-08-02T01:33:36;94463.03;;;16.43;72.73
23176;BME280;19910;42.652;23.332;2022-08-02T01:36:08;94457.88;;;16.38;72.83
23176;BME280;19910;42.652;23.332;2022-08-02T01:38:39;94462.09;;;16.31;72.94
23176;BME280;19910;42.652;23.332;2022-08-02T01:41:09;94473.31;;;16.26;72.83
23176;BME280;19910;42.652;23.332;2022-08-02T01:43:41;94467.41;;;16.21;72.38
23176;BME280;19910;42.652;23.332;2022-08-02T01:46:11;94464.50;;;16.10;72.79
23176;BME280;19910;42.652;23.332;2022-08-02T01:48:40;94468.81;;;16.11;72.52
23176;BME280;19910;42.652;23.332;2022-08-02T01:51:11;94465.53;;;16.02;72.79
23176;BME280;19910;42.652;23.332;2022-08-02T01:53:41;94465.09;;;16.00;73.12
23176;BME280;19910;42.652;23.332;2022-08-02T01:56:10;94472.34;;;15.89;73.69
23176;BME280;19910;42.652;23.332;2022-08-02T01:58:40;94473.06;;;15.86;73.05
23176;BME280;19910;42.652;23.332;2022-08-02T02:01:10;94467.59;;;15.86;73.52
23176;BME280;19910;42.652;23.332;2022-08-02T02:03:39;94471.50;;;15.85;73.52
23176;BME280;19910;42.652;23.332;2022-08-02T02:06:07;94477.69;;;15.82;73.10
23176;BME280;19910;42.652;23.332;2022-08-02T02:08:37;94471.50;;;15.85;72.70
23176;BME280;19910;42.652;23.332;2022-08-02T02:11:05;94478.50;;;15.86;72.80
23176;BME280;19910;42.652;23.332;2022-08-02T02:13:33;94476.75;;;15.74;73.55
23176;BME280;19910;42.652;23.332;2022-08-02T02:16:06;94482.91;;;15.68;73.08
23176;BME280;19910;42.652;23.332;2022-08-02T02:18:38;94475.50;;;15.91;72.93
23176;BME280;19910;42.652;23.332;2022-08-02T02:21:08;94480.06;;;15.83;73.19
23176;BME280;19910;42.652;23.332;2022-08-02T02:23:35;94468.19;;;15.76;73.47
23176;BME280;19910;42.652;23.332;2022-08-02T02:26:03;94468.94;;;15.73;73.93
23176;BME280;19910;42.652;23.332;2022-08-02T02:28:31;94476.56;;;15.63;73.89
23176;BME280;19910;42.652;23.332;2022-08-02T02:31:02;94474.28;;;15.66;74.10
23176;BME280;19910;42.652;23.332;2022-08-02T02:33:36;94487.06;;;15.61;74.24
23176;BME280;19910;42.652;23.332;2022-08-02T02:36:06;94481.47;;;15.54;74.59
23176;BME280;19910;42.652;23.332;2022-08-02T02:38:35;94482.47;;;15.46;74.77
23176;BME280;19910;42.652;23.332;2022-08-02T02:41:03;94474.72;;;15.48;74.64
23176;BME280;19910;42.652;23.332;2022-08-02T02:43:33;94463.16;;;15.55;74.23
23176;BME280;19910;42.652;23.332;2022-08-02T02:46:02;94462.91;;;15.63;74.26
23176;BME280;19910;42.652;23.332;2022-08-02T02:48:33;94469.69;;;15.70;74.10
23176;BME280;19910;42.652;23.332;2022-08-02T02:51:02;94476.47;;;15.56;74.04
23176;BME280;19910;42.652;23.332;2022-08-02T02:53:30;94476.47;;;15.56;74.32
23176;BME280;19910;42.652;23.332;2022-08-02T02:55:57;94474.28;;;15.46;74.60
23176;BME280;19910;42.652;23.332;2022-08-02T02:58:24;94479.25;;;15.41;74.49
23176;BME280;19910;42.652;23.332;2022-08-02T03:00:51;94468.88;;;15.50;74.14
23176;BME280;19910;42.652;23.332;2022-08-02T03:03:39;94471.28;;;15.32;75.01
23176;BME280;19910;42.652;23.332;2022-08-02T03:06:06;94469.69;;;15.31;74.59
23176;BME280;19910;42.652;23.332;2022-08-02T03:08:32;94478.13;;;15.22;74.40
23176;BME280;19910;42.652;23.332;2022-08-02T03:10:59;94477.22;;;15.15;74.91
23176;BME280;19910;42.652;23.332;2022-08-02T03:13:27;94471.75;;;15.15;75.41
23176;BME280;19910;42.652;23.332;2022-08-02T03:15:55;94470.72;;;15.23;74.96
23176;BME280;19910;42.652;23.332;2022-08-02T03:18:31;94479.06;;;15.30;74.48
23176;BME280;19910;42.652;23.332;2022-08-02T03:21:04;94479.41;;;15.28;74.78
23176;BME280;19910;42.652;23.332;2022-08-02T03:23:32;94476.16;;;15.42;74.57
23176;BME280;19910;42.652;23.332;2022-08-02T03:26:00;94478.59;;;15.47;74.21
23176;BME280;19910;42.652;23.332;2022-08-02T03:28:27;94468.69;;;15.58;74.17
23176;BME280;19910;42.652;23.332;2022-08-02T03:30:54;94470.94;;;15.98;73.13
23176;BME280;19910;42.652;23.332;2022-08-02T03:33:21;94476.75;;;16.73;71.45
23176;BME280;19910;42.652;23.332;2022-08-02T03:35:50;94458.16;;;17.49;68.18
23176;BME280;19910;42.652;23.332;2022-08-02T03:38:21;94456.84;;;18.20;65.64
23176;BME280;19910;42.652;23.332;2022-08-02T03:40:49;94458.72;;;19.33;61.91
23176;BME280;19910;42.652;23.332;2022-08-02T03:43:16;94460.47;;;20.19;59.03
23176;BME280;19910;42.652;23.332;2022-08-02T03:45:45;94450.25;;;20.37;57.61
23176;BME280;19910;42.652;23.332;2022-08-02T03:48:14;94456.19;;;20.36;57.80
23176;BME280;19910;42.652;23.332;2022-08-02T03:50:41;94459.56;;;21.07;56.35
23176;BME280;19910;42.652;23.332;2022-08-02T03:53:08;94456.41;;;22.51;52.74
23176;BME280;19910;42.652;23.332;2022-08-02T03:55:38;94454.00;;;23.32;49.66
23176;BME280;19910;42.652;23.332;2022-08-02T03:58:05;94455.66;;;23.90;48.17
23176;BME280;19910;42.652;23.332;2022-08-02T04:00:32;94460.72;;;24.72;46.79
23176;BME280;19910;42.652;23.332;2022-08-02T04:02:59;94463.13;;;24.70;46.06
23176;BME280;19910;42.652;23.332;2022-08-02T04:05:26;94466.66;;;24.48;46.28
23176;BME280;19910;42.652;23.332;2022-08-02T04:07:53;94467.81;;;24.73;45.79
23176;BME280;19910;42.652;23.332;2022-08-02T04:10:21;94469.94;;;25.72;44.02
23176;BME280;19910;42.652;23.332;2022-08-02T04:12:50;94473.06;;;26.62;42.54
23176;BME280;19910;42.652;23.332;2022-08-02T04:15:17;94477.81;;;27.39;40.65
23176;BME280;19910;42.652;23.332;2022-08-02T04:17:48;94476.53;;;27.73;39.91
23176;BME280;19910;42.652;23.332;2022-08-02T04:20:18;94481.44;;;27.81;39.06
23176;BME280;19910;42.652;23.332;2022-08-02T04:22:50;94488.59;;;27.37;40.02
23176;BME280;19910;42.652;23.332;2022-08-02T04:25:19;94489.53;;;27.76;39.37
23176;BME280;19910;42.652;23.332;2022-08-02T04:27:46;94482.25;;;28.07;38.33
23176;BME280;19910;42.652;23.332;2022-08-02T04:30:17;94483.09;;;27.79;38.99
23176;BME280;19910;42.652;23.332;2022-08-02T04:32:44;94478.94;;;28.88;36.76
23176;BME280;19910;42.652;23.332;2022-08-02T04:35:11;94475.75;;;29.46;36.00
23176;BME280;19910;42.652;23.332;2022-08-02T04:37:39;94479.47;;;29.43;35.28
23176;BME280;19910;42.652;23.332;2022-08-02T04:40:08;94469.84;;;29.88;35.18
23176;BME280;19910;42.652;23.332;2022-08-02T04:42:36;94467.94;;;30.59;34.30
23176;BME280;19910;42.652;23.332;2022-08-02T04:45:03;94475.88;;;30.70;33.37
23176;BME280;19910;42.652;23.332;2022-08-02T04:47:32;94477.59;;;31.53;32.66
23176;BME280;19910;42.652;23.332;2022-08-02T04:49:59;94478.09;;;30.93;32.82
23176;BME280;19910;42.652;23.332;2022-08-02T04:52:26;94473.59;;;30.96;33.03
23176;BME280;19910;42.652;23.332;2022-08-02T04:54:52;94479.09;;;32.09;31.73
23176;BME280;19910;42.652;23.332;2022-08-02T04:57:19;94479.31;;;31.69;32.13
23176;BME280;19910;42.652;23.332;2022-08-02T05:00:07;94466.75;;;32.67;30.45
23176;BME280;19910;42.652;23.332;2022-08-02T05:02:36;94475.72;;;32.47;30.79
23176;BME280;19910;42.652;23.332;2022-08-02T05:05:04;94470.53;;;33.21;29.81
23176;BME280;19910;42.652;23.332;2022-08-02T05:07:31;94474.59;;;32.54;30.40
23176;BME280;19910;42.652;23.332;2022-08-02T05:09:57;94478.13;;;32.30;30.88
23176;BME280;19910;42.652;23.332;2022-08-02T05:12:24;94476.06;;;32.40;30.97
23176;BME280;19910;42.652;23.332;2022-08-02T05:14:51;94471.00;;;32.53;30.81
23176;BME280;19910;42.652;23.332;2022-08-02T05:17:18;94485.34;;;31.95;31.52
23176;BME280;19910;42.652;23.332;2022-08-02T05:19:46;94486.59;;;31.30;32.46
23176;BME280;19910;42.652;23.332;2022-08-02T05:22:13;94484.56;;;31.21;32.57
23176;BME280;19910;42.652;23.332;2022-08-02T05:24:39;94487.25;;;31.79;31.58
23176;BME280;19910;42.652;23.332;2022-08-02T05:27:07;94487.81;;;31.20;32.13
23176;BME280;19910;42.652;23.332;2022-08-02T05:29:33;94491.44;;;29.65;33.89
23176;BME280;19910;42.652;23.332;2022-08-02T05:32:00;94492.47;;;30.64;32.92
23176;BME280;19910;42.652;23.332;2022-08-02T05:34:27;94499.75;;;29.78;33.39
23176;BME280;19910;42.652;23.332;2022-08-02T05:36:55;94484.69;;;31.18;30.81
23176;BME280;19910;42.652;23.332;2022-08-02T05:39:22;94494.22;;;32.63;29.41
23176;BME280;19910;42.652;23.332;2022-08-02T05:41:49;94501.03;;;29.64;32.58
23176;BME280;19910;42.652;23.332;2022-08-02T05:44:16;94510.94;;;28.58;35.08
23176;BME280;19910;42.652;23.332;2022-08-02T05:46:43;94507.38;;;29.43;33.93
23176;BME280;19910;42.652;23.332;2022-08-02T05:49:10;94507.84;;;30.29;32.67
23176;BME280;19910;42.652;23.332;2022-08-02T05:51:38;94512.69;;;29.16;33.70
23176;BME280;19910;42.652;23.332;2022-08-02T05:54:18;94496.91;;;30.53;32.29
23176;BME280;19910;42.652;23.332;2022-08-02T05:56:50;94509.00;;;31.48;29.93
23176;BME280;19910;42.652;23.332;2022-08-02T05:59:27;94510.69;;;31.18;30.33
23176;BME280;19910;42.652;23.332;2022-08-02T06:02:02;94516.47;;;29.22;32.90
23176;BME280;19910;42.652;23.332;2022-08-02T06:04:33;94516.97;;;29.42;32.85
23176;BME280;19910;42.652;23.332;2022-08-02T06:07:10;94518.44;;;30.12;31.89
23176;BME280;19910;42.652;23.332;2022-08-02T06:09:39;94512.16;;;31.68;29.71
23176;BME280;19910;42.652;23.332;2022-08-02T06:12:09;94517.91;;;31.74;28.69
23176;BME280;19910;42.652;23.332;2022-08-02T06:14:37;94518.50;;;32.05;29.09
23176;BME280;19910;42.652;23.332;2022-08-02T06:17:06;94516.25;;;30.60;30.39
23176;BME280;19910;42.652;23.332;2022-08-02T06:19:35;94524.56;;;28.69;33.48
23176;BME280;19910;42.652;23.332;2022-08-02T06:22:03;94531.84;;;28.79;32.98
23176;BME280;19910;42.652;23.332;2022-08-02T06:24:43;94529.81;;;28.42;33.92
23176;BME280;19910;42.652;23.332;2022-08-02T06:27:11;94520.09;;;28.34;33.44
23176;BME280;19910;42.652;23.332;2022-08-02T06:29:39;94535.13;;;28.74;32.75
23176;BME280;19910;42.652;23.332;2022-08-02T06:32:07;94534.81;;;28.34;33.80
23176;BME280;19910;42.652;23.332;2022-08-02T06:34:35;94537.41;;;29.95;32.02
23176;BME280;19910;42.652;23.332;2022-08-02T06:37:10;94541.22;;;30.85;30.08
23176;BME280;19910;42.652;23.332;2022-08-02T06:39:46;94542.16;;;30.29;30.62
23176;BME280;19910;42.652;23.332;2022-08-02T06:42:20;94548.38;;;30.02;31.89
23176;BME280;19910;42.652;23.332;2022-08-02T06:44:51;94549.53;;;29.11;32.79
23176;BME280;19910;42.652;23.332;2022-08-02T06:47:18;94544.06;;;28.44;34.36
23176;BME280;19910;42.652;23.332;2022-08-02T06:49:45;94534.09;;;30.31;32.29
23176;BME280;19910;42.652;23.332;2022-08-02T06:52:12;94536.41;;;30.02;32.31
23176;BME280;19910;42.652;23.332;2022-08-02T06:54:39;94542.66;;;28.10;34.74
23176;BME280;19910;42.652;23.332;2022-08-02T06:57:08;94551.06;;;26.71;36.27
23176;BME280;19910;42.652;23.332;2022-08-02T06:59:34;94543.53;;;27.49;35.48
23176;BME280;19910;42.652;23.332;2022-08-02T07:02:02;94541.03;;;27.84;35.39
23176;BME280;19910;42.652;23.332;2022-08-02T07:04:29;94552.38;;;27.15;35.87
23176;BME280;19910;42.652;23.332;2022-08-02T07:06:58;94542.28;;;28.75;33.82
23176;BME280;19910;42.652;23.332;2022-08-02T07:09:24;94534.25;;;28.77;33.83
23176;BME280;19910;42.652;23.332;2022-08-02T07:11:51;94522.75;;;30.04;33.35
23176;BME280;19910;42.652;23.332;2022-08-02T07:14:19;94538.94;;;28.55;33.93
23176;BME280;19910;42.652;23.332;2022-08-02T07:16:46;94534.38;;;28.61;34.26
23176;BME280;19910;42.652;23.332;2022-08-02T07:19:13;94533.72;;;29.42;33.73
23176;BME280;19910;42.652;23.332;2022-08-02T07:21:40;94540.88;;;28.16;35.55
23176;BME280;19910;42.652;23.332;2022-08-02T07:24:07;94551.00;;;27.69;36.53
23176;BME280;19910;42.652;23.332;2022-08-02T07:26:34;94531.13;;;28.50;34.58
23176;BME280;19910;42.652;23.332;2022-08-02T07:29:00;94536.53;;;28.82;34.50
23176;BME280;19910;42.652;23.332;2022-08-02T07:31:28;94537.59;;;28.47;35.28
23176;BME280;19910;42.652;23.332;2022-08-02T07:33:55;94543.34;;;28.14;35.14
23176;BME280;19910;42.652;23.332;2022-08-02T07:36:22;94538.03;;;27.91;35.74
23176;BME280;19910;42.652;23.332;2022-08-02T07:38:49;94527.13;;;28.51;34.86
23176;BME280;19910;42.652;23.332;2022-08-02T07:41:16;94540.66;;;27.69;36.46
23176;BME280;19910;42.652;23.332;2022-08-02T07:43:43;94541.53;;;27.05;37.43
23176;BME280;19910;42.652;23.332;2022-08-02T07:46:09;94542.09;;;27.45;37.52
23176;BME280;19910;42.652;23.332;2022-08-02T07:48:37;94533.94;;;27.67;36.93
23176;BME280;19910;42.652;23.332;2022-08-02T07:51:04;94514.41;;;28.75;34.91
23176;BME280;19910;42.652;23.332;2022-08-02T07:53:31;94520.09;;;28.34;36.00
23176;BME280;19910;42.652;23.332;2022-08-02T07:55:58;94527.38;;;27.61;36.12
23176;BME280;19910;42.652;23.332;2022-08-02T07:58:25;94526.44;;;28.34;35.65
23176;BME280;19910;42.652;23.332;2022-08-02T08:00:52;94523.88;;;29.50;34.78
23176;BME280;19910;42.652;23.332;2022-08-02T08:03:19;94518.63;;;30.49;32.36
23176;BME280;19910;42.652;23.332;2022-08-02T08:05:47;94522.59;;;29.86;32.89
23176;BME280;19910;42.652;23.332;2022-08-02T09:11:47;94527.38;;;27.61;36.83
23176;BME280;19910;42.652;23.332;2022-08-02T09:14:25;94529.09;;;27.54;37.40
23176;BME280;19910;42.652;23.332;2022-08-02T09:16:52;94533.50;;;26.74;37.05
23176;BME280;19910;42.652;23.332;2022-08-02T09:19:21;94529.28;;;27.02;36.42
23176;BME280;19910;42.652;23.332;2022-08-02T09:21:49;94521.28;;;27.78;35.40
23176;BME280;19910;42.652;23.332;2022-08-02T09:24:17;94523.03;;;28.01;35.28
23176;BME280;19910;42.652;23.332;2022-08-02T09:26:44;94510.84;;;28.62;34.54
23176;BME280;19910;42.652;23.332;2022-08-02T09:29:14;94516.19;;;28.69;34.78
23176;BME280;19910;42.652;23.332;2022-08-02T09:31:41;94513.72;;;28.58;35.82
23176;BME280;19910;42.652;23.332;2022-08-02T09:34:08;94511.09;;;28.80;35.26
23176;BME280;19910;42.652;23.332;2022-08-02T09:36:40;94509.69;;;27.67;34.68
23176;BME280;19910;42.652;23.332;2022-08-02T09:39:09;94516.13;;;27.64;35.64
23176;BME280;19910;42.652;23.332;2022-08-02T09:41:38;94511.00;;;27.63;34.97
23176;BME280;19910;42.652;23.332;2022-08-02T09:44:07;94510.34;;;28.13;35.20
23176;BME280;19910;42.652;23.332;2022-08-02T09:46:37;94502.59;;;28.46;34.44
23176;BME280;19910;42.652;23.332;2022-08-02T09:49:06;94505.81;;;28.44;34.96
23176;BME280;19910;42.652;23.332;2022-08-02T09:51:35;94501.59;;;28.52;33.98
23176;BME280;19910;42.652;23.332;2022-08-02T09:54:04;94499.19;;;28.00;34.95
23176;BME280;19910;42.652;23.332;2022-08-02T09:56:42;94489.53;;;27.76;36.37
23176;BME280;19910;42.652;23.332;2022-08-02T09:59:10;94487.78;;;27.82;35.83
23176;BME280;19910;42.652;23.332;2022-08-02T10:01:39;94496.38;;;27.87;35.84
23176;BME280;19910;42.652;23.332;2022-08-02T10:04:08;94494.19;;;28.08;35.90
23176;BME280;19910;42.652;23.332;2022-08-02T10:06:36;94499.44;;;28.18;34.72
23176;BME280;19910;42.652;23.332;2022-08-02T10:09:04;94489.44;;;28.34;35.04
23176;BME280;19910;42.652;23.332;2022-08-02T10:11:31;94485.41;;;28.35;35.52
23176;BME280;19910;42.652;23.332;2022-08-02T10:13:59;94490.63;;;29.09;33.93
23176;BME280;19910;42.652;23.332;2022-08-02T10:16:33;94485.31;;;29.80;33.59
23176;BME280;19910;42.652;23.332;2022-08-02T10:19:04;94489.31;;;30.22;32.19
23176;BME280;19910;42.652;23.332;2022-08-02T10:21:35;94490.25;;;29.76;33.12
23176;BME280;19910;42.652;23.332;2022-08-02T10:24:11;94484.50;;;28.88;34.52
23176;BME280;19910;42.652;23.332;2022-08-02T10:26:40;94491.44;;;28.20;35.78
23176;BME280;19910;42.652;23.332;2022-08-02T10:29:08;94485.84;;;28.20;36.65
23176;BME280;19910;42.652;23.332;2022-08-02T10:31:40;94482.72;;;28.44;35.77
23176;BME280;19910;42.652;23.332;2022-08-02T10:34:12;94479.19;;;28.56;35.66
23176;BME280;19910;42.652;23.332;2022-08-02T10:36:41;94476.38;;;28.43;35.62
23176;BME280;19910;42.652;23.332;2022-08-02T10:39:09;94480.41;;;29.15;34.12
23176;BME280;19910;42.652;23.332;2022-08-02T10:41:44;94482.97;;;29.22;33.19
23176;BME280;19910;42.652;23.332;2022-08-02T10:44:26;94482.19;;;29.56;33.04
23176;BME280;19910;42.652;23.332;2022-08-02T10:47:20;94479.78;;;29.45;32.90
23176;BME280;19910;42.652;23.332;2022-08-02T10:49:50;94466.72;;;30.08;32.31
23176;BME280;19910;42.652;23.332;2022-08-02T10:52:18;94470.50;;;29.70;32.77
23176;BME280;19910;42.652;23.332;2022-08-02T10:54:55;94469.63;;;29.04;34.30
23176;BME280;19910;42.652;23.332;2022-08-02T10:57:23;94474.34;;;28.94;34.29
23176;BME280;19910;42.652;23.332;2022-08-02T10:59:55;94470.47;;;28.67;35.02
23176;BME280;19910;42.652;23.332;2022-08-02T11:02:40;94471.09;;;29.30;34.83
23176;BME280;19910;42.652;23.332;2022-08-02T11:05:16;94461.44;;;29.79;33.45
23176;BME280;19910;42.652;23.332;2022-08-02T11:07:45;94457.00;;;29.47;33.71
23176;BME280;19910;42.652;23.332;2022-08-02T11:10:30;94472.78;;;28.05;36.25
23176;BME280;19910;42.652;23.332;2022-08-02T11:13:00;94468.22;;;27.98;36.22
23176;BME280;19910;42.652;23.332;2022-08-02T11:15:27;94458.19;;;28.13;35.50
23176;BME280;19910;42.652;23.332;2022-08-02T11:17:55;94471.34;;;28.76;34.25
23176;BME280;19910;42.652;23.332;2022-08-02T11:20:25;94475.09;;;29.08;35.30
23176;BME280;19910;42.652;23.332;2022-08-02T11:22:53;94465.91;;;29.20;33.90
23176;BME280;19910;42.652;23.332;2022-08-02T11:25:33;94463.13;;;29.20;34.15
23176;BME280;19910;42.652;23.332;2022-08-02T11:28:09;94456.38;;;29.64;33.93
23176;BME280;19910;42.652;23.332;2022-08-02T11:30:37;94464.50;;;29.37;34.15
23176;BME280;19910;42.652;23.332;2022-08-02T11:33:04;94462.41;;;29.94;32.49
23176;BME280;19910;42.652;23.332;2022-08-02T11:35:34;94460.34;;;30.69;32.65
23176;BME280;19910;42.652;23.332;2022-08-02T11:38:16;94460.72;;;31.07;31.51
23176;BME280;19910;42.652;23.332;2022-08-02T11:40:43;94454.41;;;31.16;31.81
23176;BME280;19910;42.652;23.332;2022-08-02T11:43:18;94464.50;;;29.81;32.31
23176;BME280;19910;42.652;23.332;2022-08-02T11:45:46;94467.06;;;29.44;33.50
23176;BME280;19910;42.652;23.332;2022-08-02T11:48:13;94456.81;;;29.28;34.20
23176;BME280;19910;42.652;23.332;2022-08-02T11:50:41;94456.78;;;29.07;34.78
23176;BME280;19910;42.652;23.332;2022-08-02T11:53:14;94460.88;;;28.80;34.27
23176;BME280;19910;42.652;23.332;2022-08-02T11:55:41;94468.19;;;28.99;35.22
23176;BME280;19910;42.652;23.332;2022-08-02T11:58:08;94455.19;;;29.18;34.34
23176;BME280;19910;42.652;23.332;2022-08-02T12:00:36;94454.84;;;28.69;34.93
23176;BME280;19910;42.652;23.332;2022-08-02T12:03:03;94453.00;;;29.00;35.23
23176;BME280;19910;42.652;23.332;2022-08-02T12:05:30;94457.38;;;29.58;34.43
23176;BME280;19910;42.652;23.332;2022-08-02T12:07:58;94457.94;;;28.96;34.78
23176;BME280;19910;42.652;23.332;2022-08-02T12:10:25;94456.13;;;27.76;36.26
23176;BME280;19910;42.652;23.332;2022-08-02T12:12:54;94468.25;;;27.40;36.82
23176;BME280;19910;42.652;23.332;2022-08-02T12:15:32;94456.38;;;27.81;35.90
23176;BME280;19910;42.652;23.332;2022-08-02T12:17:59;94458.31;;;28.48;36.02
23176;BME280;19910;42.652;23.332;2022-08-02T12:20:44;94456.09;;;28.81;34.60
23176;BME280;19910;42.652;23.332;2022-08-02T12:23:12;94453.03;;;28.75;34.65
23176;BME280;19910;42.652;23.332;2022-08-02T12:25:39;94452.66;;;28.39;35.46
23176;BME280;19910;42.652;23.332;2022-08-02T12:28:17;94448.31;;;28.38;34.91
23176;BME280;19910;42.652;23.332;2022-08-02T12:30:51;94453.59;;;28.95;34.77
23176;BME280;19910;42.652;23.332;2022-08-02T12:33:19;94447.06;;;29.67;33.86
23176;BME280;19910;42.652;23.332;2022-08-02T12:35:47;94444.19;;;30.02;34.02
23176;BME280;19910;42.652;23.332;2022-08-02T12:38:15;94443.34;;;29.70;33.60
23176;BME280;19910;42.652;23.332;2022-08-02T12:40:42;94449.41;;;29.47;35.04
23176;BME280;19910;42.652;23.332;2022-08-02T12:43:17;94446.66;;;29.00;34.63
23176;BME280;19910;42.652;23.332;2022-08-02T12:45:46;94451.72;;;28.16;36.29
23176;BME280;19910;42.652;23.332;2022-08-02T12:48:14;94461.13;;;28.22;35.93
23176;BME280;19910;42.652;23.332;2022-08-02T12:50:42;94448.63;;;28.14;36.01
23176;BME280;19910;42.652;23.332;2022-08-02T12:53:12;94456.09;;;28.81;35.42
23176;BME280;19910;42.652;23.332;2022-08-02T12:55:49;94442.97;;;29.38;34.41
23176;BME280;19910;42.652;23.332;2022-08-02T12:58:16;94436.06;;;29.29;34.94
23176;BME280;19910;42.652;23.332;2022-08-02T13:00:51;94439.06;;;29.35;34.09
23176;BME280;19910;42.652;23.332;2022-08-02T13:03:18;94437.59;;;29.09;34.49
23176;BME280;19910;42.652;23.332;2022-08-02T13:05:45;94441.53;;;29.77;34.04
23176;BME280;19910;42.652;23.332;2022-08-02T13:08:12;94430.31;;;30.20;33.61
23176;BME280;19910;42.652;23.332;2022-08-02T13:10:40;94441.22;;;28.96;35.13
23176;BME280;19910;42.652;23.332;2022-08-02T13:13:08;94433.38;;;29.26;34.57
23176;BME280;19910;42.652;23.332;2022-08-02T13:15:35;94440.56;;;28.92;34.70
23176;BME280;19910;42.652;23.332;2022-08-02T13:18:02;94440.78;;;28.85;35.93
23176;BME280;19910;42.652;23.332;2022-08-02T13:20:29;94435.53;;;28.75;35.11
23176;BME280;19910;42.652;23.332;2022-08-02T13:22:56;94431.00;;;29.37;34.15
23176;BME280;19910;42.652;23.332;2022-08-02T13:25:26;94423.84;;;29.80;33.35
23176;BME280;19910;42.652;23.332;2022-08-02T13:27:53;94429.22;;;30.58;34.32
23176;BME280;19910;42.652;23.332;2022-08-02T13:30:22;94420.31;;;30.10;33.74
23176;BME280;19910;42.652;23.332;2022-08-02T13:32:48;94430.38;;;29.77;35.07
23176;BME280;19910;42.652;23.332;2022-08-02T13:35:15;94431.16;;;29.55;34.40
23176;BME280;19910;42.652;23.332;2022-08-02T13:37:42;94445.88;;;28.99;35.45
23176;BME280;19910;42.652;23.332;2022-08-02T13:40:10;94441.06;;;28.53;36.02
23176;BME280;19910;42.652;23.332;2022-08-02T13:42:37;94443.50;;;28.00;37.11
23176;BME280;19910;42.652;23.332;2022-08-02T13:45:04;94440.47;;;27.94;37.42
23176;BME280;19910;42.652;23.332;2022-08-02T13:47:33;94449.69;;;27.79;37.66
23176;BME280;19910;42.652;23.332;2022-08-02T13:50:00;94456.22;;;27.59;37.49
23176;BME280;19910;42.652;23.332;2022-08-02T13:52:26;94451.09;;;27.58;37.56
23176;BME280;19910;42.652;23.332;2022-08-02T13:54:53;94454.00;;;27.38;37.58
23176;BME280;19910;42.652;23.332;2022-08-02T13:57:20;94448.56;;;27.47;37.54
23176;BME280;19910;42.652;23.332;2022-08-02T13:59:47;94448.03;;;27.52;38.22
23176;BME280;19910;42.652;23.332;2022-08-02T14:02:14;94451.50;;;28.11;36.72
23176;BME280;19910;42.652;23.332;2022-08-02T14:04:42;94446.66;;;28.27;35.82